createdAt,value
2018-03-14T00:01:58.142Z,4.50
2018-03-14T00:04:25.307Z,4.47
2018-03-14T00:06:51.766Z,4.60
2018-03-14T00:09:18.177Z,4.95
2018-03-14T00:11:44.590Z,4.50
2018-03-14T00:14:11.738Z,3.80
2018-03-14T00:16:38.149Z,3.80
2018-03-14T00:19:04.580Z,4.30
2018-03-14T00:21:30.993Z,4.43
2018-03-14T00:23:57.410Z,4.87
2018-03-14T00:26:24.533Z,4.18
2018-03-14T00:28:51.705Z,4.53
2018-03-14T00:31:18.830Z,4.07
2018-03-14T00:33:46.014Z,4.18
2018-03-14T00:36:12.414Z,3.85
2018-03-14T00:38:38.838Z,4.35
2018-03-14T00:41:05.270Z,4.20
2018-03-14T00:43:31.658Z,4.20
2018-03-14T00:45:58.087Z,4.57
2018-03-14T00:48:24.474Z,4.77
2018-03-14T00:50:50.900Z,4.67
2018-03-14T00:53:17.289Z,4.82
2018-03-14T00:55:43.690Z,5.12
2018-03-14T00:58:10.114Z,5.20
2018-03-14T01:00:36.506Z,5.28
2018-03-14T01:03:02.934Z,5.40
2018-03-14T01:05:29.362Z,5.70
2018-03-14T01:07:55.836Z,5.97
2018-03-14T01:10:22.282Z,6.00
2018-03-14T01:12:48.702Z,5.40
2018-03-14T01:15:15.245Z,6.35
2018-03-14T01:17:41.649Z,5.45
2018-03-14T01:20:08.063Z,5.90
2018-03-14T01:22:34.492Z,5.93
2018-03-14T01:25:01.657Z,6.40
2018-03-14T01:27:28.090Z,6.60
2018-03-14T01:29:54.496Z,6.30
2018-03-14T01:32:21.693Z,6.90
2018-03-14T01:34:48.104Z,6.43
2018-03-14T01:37:15.260Z,7.00
2018-03-14T01:39:41.658Z,6.60
2018-03-14T01:42:08.087Z,7.00
2018-03-14T01:44:34.482Z,6.90
2018-03-14T01:47:00.904Z,7.85
2018-03-14T01:49:27.321Z,7.80
2018-03-14T01:51:54.447Z,7.45
2018-03-14T01:54:20.964Z,7.70
2018-03-14T01:56:47.353Z,8.13
2018-03-14T01:59:13.790Z,8.27
2018-03-14T02:01:40.287Z,7.95
2018-03-14T02:04:06.674Z,7.68
2018-03-14T02:06:33.109Z,7.60
2018-03-14T02:08:59.573Z,7.50
2018-03-14T02:11:26.001Z,7.40
2018-03-14T02:13:52.536Z,7.40
2018-03-14T02:16:18.925Z,6.75
2018-03-14T02:18:45.351Z,6.70
2018-03-14T02:21:12.485Z,6.35
2018-03-14T02:23:38.917Z,6.60
2018-03-14T02:26:05.327Z,6.72
2018-03-14T02:28:31.735Z,6.22
2018-03-14T02:30:58.141Z,6.00
2018-03-14T02:33:25.318Z,6.87
2018-03-14T02:35:52.477Z,6.60
2018-03-14T02:38:18.917Z,7.07
2018-03-14T02:40:45.307Z,7.03
2018-03-14T02:43:11.705Z,6.57
2018-03-14T02:45:38.107Z,7.50
2018-03-14T02:48:05.257Z,7.40
2018-03-14T02:50:32.366Z,7.72
2018-03-14T02:52:58.762Z,7.00
2018-03-14T02:55:25.153Z,7.50
2018-03-14T02:57:51.553Z,7.20
2018-03-14T03:00:17.947Z,7.57
2018-03-14T03:02:44.322Z,7.30
2018-03-14T03:05:10.733Z,7.00
2018-03-14T03:07:37.110Z,7.22
2018-03-14T03:10:03.568Z,6.97
2018-03-14T03:12:30.726Z,7.80
2018-03-14T03:14:57.862Z,7.25
2018-03-14T03:17:24.267Z,7.22
2018-03-14T03:19:50.657Z,7.20
2018-03-14T03:22:17.105Z,7.65
2018-03-14T03:24:43.518Z,7.72
2018-03-14T03:27:10.651Z,7.37
2018-03-14T03:29:37.037Z,7.78
2018-03-14T03:32:03.402Z,7.35
2018-03-14T03:34:29.862Z,6.87
2018-03-14T03:36:57.029Z,8.18
2018-03-14T03:39:23.406Z,7.95
2018-03-14T03:41:49.806Z,8.20
2018-03-14T03:44:16.213Z,7.82
2018-03-14T03:46:43.399Z,8.40
2018-03-14T03:49:09.788Z,7.75
2018-03-14T03:51:36.201Z,8.80
2018-03-14T03:54:02.615Z,9.02
2018-03-14T03:56:28.995Z,8.40
2018-03-14T03:58:55.390Z,9.55
2018-03-14T04:01:21.781Z,10.13
2018-03-14T04:03:48.918Z,9.30
2018-03-14T04:06:16.059Z,9.38
2018-03-14T04:08:42.457Z,9.85
2018-03-14T04:11:08.858Z,9.55
2018-03-14T04:13:35.296Z,8.90
2018-03-14T04:16:01.703Z,8.98
2018-03-14T04:18:28.896Z,8.70
2018-03-14T04:20:56.214Z,9.20
2018-03-14T04:23:23.362Z,9.65
2018-03-14T04:25:50.485Z,9.90
2018-03-14T04:28:16.945Z,9.45
2018-03-14T04:30:44.254Z,9.48
2018-03-14T04:33:10.658Z,9.32
2018-03-14T04:35:38.108Z,9.95
2018-03-14T04:38:05.217Z,10.33
2018-03-14T04:40:31.611Z,9.40
2018-03-14T04:42:57.995Z,11.00
2018-03-14T04:45:24.378Z,9.95
2018-03-14T04:47:50.794Z,10.20
2018-03-14T04:50:17.957Z,10.70
2018-03-14T04:52:44.420Z,10.60
2018-03-14T04:55:10.890Z,10.52
2018-03-14T04:57:37.286Z,10.82
2018-03-14T05:00:03.743Z,11.68
2018-03-14T05:02:30.146Z,10.80
2018-03-14T05:04:56.533Z,12.15
2018-03-14T05:07:22.933Z,10.95
2018-03-14T05:09:49.334Z,11.70
2018-03-14T05:12:15.715Z,12.77
2018-03-14T05:14:42.159Z,12.20
2018-03-14T05:17:08.527Z,11.10
2018-03-14T05:19:34.944Z,11.60
2018-03-14T05:22:02.065Z,12.23
2018-03-14T05:24:28.481Z,11.27
2018-03-14T05:26:54.896Z,10.60
2018-03-14T05:29:21.275Z,11.35
2018-03-14T05:31:47.681Z,11.50
2018-03-14T05:34:14.058Z,11.63
2018-03-14T05:36:40.448Z,11.48
2018-03-14T05:39:06.824Z,11.95
2018-03-14T05:41:33.223Z,11.75
2018-03-14T05:43:59.619Z,11.80
2018-03-14T05:46:26.759Z,11.12
2018-03-14T05:48:53.871Z,10.73
2018-03-14T05:51:20.276Z,10.73
2018-03-14T05:53:46.673Z,10.83
2018-03-14T05:56:13.806Z,11.48
2018-03-14T05:58:40.289Z,10.90
2018-03-14T06:01:06.662Z,11.38
2018-03-14T06:03:33.067Z,11.00
2018-03-14T06:05:59.485Z,10.77
2018-03-14T06:08:25.890Z,10.65
2018-03-14T06:10:53.029Z,11.00
2018-03-14T06:13:19.434Z,11.48
2018-03-14T06:15:45.843Z,10.45
2018-03-14T06:18:12.254Z,10.38
2018-03-14T06:20:39.408Z,10.85
2018-03-14T06:23:06.550Z,10.00
2018-03-14T06:25:33.782Z,10.10
2018-03-14T06:28:00.155Z,9.30
2018-03-14T06:30:27.309Z,9.85
2018-03-14T06:32:53.738Z,9.10
2018-03-14T06:35:20.890Z,10.27
2018-03-14T06:37:48.029Z,9.60
2018-03-14T06:40:15.146Z,9.13
2018-03-14T06:42:41.570Z,9.25
2018-03-14T06:45:07.938Z,8.57
2018-03-14T06:47:34.352Z,8.97
2018-03-14T06:50:00.734Z,7.65
2018-03-14T06:52:27.113Z,8.40
2018-03-14T06:54:53.512Z,8.68
2018-03-14T06:57:19.911Z,8.25
2018-03-14T06:59:58.501Z,7.90
2018-03-14T07:16:09.128Z,7.07
2018-03-14T07:18:35.517Z,7.37
2018-03-14T07:21:01.924Z,7.57
2018-03-14T07:23:28.338Z,7.15
2018-03-14T07:25:54.750Z,6.78
2018-03-14T07:28:21.866Z,7.20
2018-03-14T07:30:48.275Z,7.65
2018-03-14T07:33:14.679Z,6.95
2018-03-14T07:35:41.058Z,7.10
2018-03-14T07:38:07.477Z,7.32
2018-03-14T07:40:33.869Z,8.32
2018-03-14T07:43:01.031Z,7.93
2018-03-14T07:45:27.422Z,7.82
2018-03-14T07:47:53.824Z,8.10
2018-03-14T07:50:20.211Z,8.23
2018-03-14T07:52:47.318Z,8.35
2018-03-14T07:55:13.715Z,8.68
2018-03-14T07:57:40.088Z,8.57
2018-03-14T08:00:06.490Z,8.35
2018-03-14T08:02:32.868Z,8.40
2018-03-14T08:04:59.266Z,8.57
2018-03-14T08:07:25.638Z,7.80
2018-03-14T08:09:52.046Z,8.60
2018-03-14T08:12:18.481Z,8.95
2018-03-14T08:14:44.958Z,8.18
2018-03-14T08:17:11.413Z,8.27
2018-03-14T08:19:38.591Z,8.32
2018-03-14T08:22:05.003Z,8.27
2018-03-14T08:24:32.126Z,8.63
2018-03-14T08:26:59.321Z,8.75
2018-03-14T08:29:25.691Z,9.13
2018-03-14T08:31:52.095Z,9.50
2018-03-14T08:34:18.502Z,9.05
2018-03-14T08:36:45.609Z,8.30
2018-03-14T08:39:12.026Z,9.23
2018-03-14T08:41:38.422Z,9.48
2018-03-14T08:44:05.593Z,8.70
2018-03-14T08:46:31.986Z,9.17
2018-03-14T08:48:58.405Z,9.70
2018-03-14T08:51:24.822Z,10.17
2018-03-14T08:53:51.257Z,9.20
2018-03-14T08:56:17.673Z,9.82
2018-03-14T08:58:44.098Z,9.30
2018-03-14T09:01:10.497Z,10.30
2018-03-14T09:03:36.865Z,9.50
2018-03-14T09:06:03.291Z,10.40
2018-03-14T09:08:29.686Z,10.18
2018-03-14T09:10:56.086Z,9.80
2018-03-14T09:13:22.480Z,9.50
2018-03-14T09:15:49.662Z,10.20
2018-03-14T09:18:16.038Z,9.27
2018-03-14T09:20:42.440Z,9.63
2018-03-14T09:23:08.821Z,8.80
2018-03-14T09:25:36.009Z,9.73
2018-03-14T09:28:02.401Z,10.35
2018-03-14T09:30:28.813Z,9.85
2018-03-14T09:32:55.206Z,10.80
2018-03-14T09:35:21.661Z,10.05
2018-03-14T09:37:48.062Z,9.70
2018-03-14T09:40:14.452Z,10.13
2018-03-14T09:42:40.863Z,10.10
2018-03-14T09:45:07.274Z,9.90
2018-03-14T09:47:33.693Z,9.95
2018-03-14T09:50:00.833Z,9.90
2018-03-14T09:52:28.034Z,9.90
2018-03-14T09:54:54.446Z,10.20
2018-03-14T09:57:20.818Z,10.53
2018-03-14T09:59:47.249Z,10.40
2018-03-14T10:02:13.651Z,9.70
2018-03-14T10:04:40.090Z,9.87
2018-03-14T10:07:06.483Z,9.70
2018-03-14T10:09:32.903Z,9.50
2018-03-14T10:11:59.294Z,9.75
2018-03-14T10:14:25.748Z,10.00
2018-03-14T10:16:52.142Z,10.65
2018-03-14T10:19:19.300Z,10.45
2018-03-14T10:21:45.759Z,9.10
2018-03-14T10:24:12.165Z,9.83
2018-03-14T10:26:38.578Z,9.70
2018-03-14T10:29:05.101Z,10.70
2018-03-14T10:31:31.517Z,10.40
2018-03-14T10:33:57.947Z,10.00
2018-03-14T10:36:24.359Z,10.55
2018-03-14T10:38:50.754Z,9.35
2018-03-14T10:41:17.886Z,9.30
2018-03-14T10:43:44.348Z,9.35
2018-03-14T10:46:11.519Z,9.25
2018-03-14T10:48:37.923Z,9.13
2018-03-14T10:51:04.312Z,8.18
2018-03-14T10:53:30.714Z,9.35
2018-03-14T10:55:57.125Z,6.28
2018-03-14T10:58:24.268Z,7.70
2018-03-14T11:00:55.658Z,4.70
2018-03-14T11:03:28.068Z,6.82
2018-03-14T11:05:54.455Z,5.68
2018-03-14T11:08:21.577Z,8.18
2018-03-14T11:10:48.068Z,7.30
2018-03-14T11:13:14.422Z,6.70
2018-03-14T11:15:40.804Z,5.35
2018-03-14T11:18:07.987Z,5.60
2018-03-14T11:20:34.353Z,7.10
2018-03-14T11:23:00.746Z,6.80
2018-03-14T11:25:27.147Z,7.35
2018-03-14T11:27:54.272Z,7.62
2018-03-14T11:30:20.682Z,6.90
2018-03-14T11:32:47.071Z,6.75
2018-03-14T11:40:07.389Z,7.37
2018-03-14T11:42:34.526Z,7.37
2018-03-14T11:45:01.666Z,8.10
2018-03-14T11:47:28.108Z,7.75
2018-03-14T11:49:54.498Z,7.70
2018-03-14T11:52:20.921Z,8.63
2018-03-14T11:54:47.309Z,8.10
2018-03-14T11:57:13.715Z,8.77
2018-03-14T11:59:40.132Z,8.75
2018-03-14T12:02:06.503Z,8.73
2018-03-14T12:04:32.923Z,7.03
2018-03-14T12:06:59.334Z,8.75
2018-03-14T12:09:25.796Z,8.38
2018-03-14T12:11:52.171Z,8.48
2018-03-14T12:14:19.334Z,8.80
2018-03-14T12:16:46.454Z,8.20
2018-03-14T12:19:12.851Z,8.30
2018-03-14T12:21:39.235Z,8.15
2018-03-14T12:24:05.638Z,8.40
2018-03-14T12:26:32.014Z,8.60
2018-03-14T12:28:59.172Z,8.65
2018-03-14T12:31:26.310Z,7.40
2018-03-14T12:33:53.438Z,8.32
2018-03-14T12:36:19.864Z,8.10
2018-03-14T12:38:46.244Z,8.50
2018-03-14T12:41:13.390Z,8.60
2018-03-14T12:43:39.810Z,8.75
2018-03-14T12:46:06.227Z,8.80
2018-03-14T12:48:32.606Z,8.48
2018-03-14T12:50:59.045Z,8.30
2018-03-14T12:53:25.421Z,9.95
2018-03-14T12:55:51.863Z,10.35
2018-03-14T12:58:18.242Z,9.40
2018-03-14T13:00:44.649Z,10.30
2018-03-14T13:03:11.101Z,9.63
2018-03-14T13:05:38.255Z,9.87
2018-03-14T13:08:05.411Z,9.60
2018-03-14T13:10:31.784Z,9.30
2018-03-14T13:12:58.183Z,9.38
2018-03-14T13:15:24.604Z,10.13
2018-03-14T13:17:51.754Z,9.00
2018-03-14T13:20:18.133Z,8.85
2018-03-14T13:22:44.527Z,9.05
2018-03-14T13:25:10.950Z,9.00
2018-03-14T13:27:38.079Z,8.65
2018-03-14T13:30:04.633Z,8.93
2018-03-14T13:32:31.754Z,8.60
2018-03-14T13:34:58.154Z,9.00
2018-03-14T13:37:24.534Z,9.20
2018-03-14T13:39:50.924Z,9.30
2018-03-14T13:42:17.295Z,8.90
2018-03-14T13:44:43.706Z,8.50
2018-03-14T13:47:10.174Z,7.60
2018-03-14T13:49:37.288Z,8.13
2018-03-14T13:52:03.691Z,8.13
2018-03-14T13:54:30.813Z,7.97
2018-03-14T13:56:57.222Z,7.43
2018-03-14T13:59:23.634Z,8.07
2018-03-14T14:01:50.019Z,7.70
2018-03-14T14:04:16.431Z,8.48
2018-03-14T14:06:42.806Z,7.87
2018-03-14T14:09:09.949Z,8.77
2018-03-14T14:11:37.070Z,8.27
2018-03-14T14:14:03.511Z,8.05
2018-03-14T14:16:29.906Z,8.88
2018-03-14T14:18:56.351Z,8.32
2018-03-14T14:21:22.751Z,8.10
2018-03-14T14:23:49.146Z,8.45
2018-03-14T14:26:15.565Z,7.10
2018-03-14T14:28:41.935Z,7.30
2018-03-14T14:31:09.085Z,6.87
2018-03-14T14:33:36.217Z,7.07
2018-03-14T14:36:03.348Z,7.57
2018-03-14T14:38:29.749Z,8.88
2018-03-14T14:40:56.181Z,7.87
2018-03-14T14:43:22.599Z,9.20
2018-03-14T14:45:49.771Z,8.10
2018-03-14T14:48:16.172Z,10.07
2018-03-14T14:50:42.553Z,9.60
2018-03-14T14:53:08.974Z,9.60
2018-03-14T14:55:35.354Z,10.05
2018-03-14T14:58:01.746Z,9.60
2018-03-14T15:00:28.160Z,10.27
2018-03-14T15:02:54.554Z,9.40
2018-03-14T15:05:20.984Z,9.60
2018-03-14T15:07:47.357Z,10.00
2018-03-14T15:10:14.508Z,8.90
2018-03-14T15:12:41.638Z,10.00
2018-03-14T15:15:08.039Z,9.27
2018-03-14T15:17:34.423Z,10.00
2018-03-14T15:20:01.586Z,10.27
2018-03-14T15:22:28.752Z,10.00
2018-03-14T15:24:55.179Z,10.30
2018-03-14T15:27:21.612Z,10.30
2018-03-14T15:29:48.030Z,10.87
2018-03-14T15:32:15.195Z,11.40
2018-03-14T15:34:41.603Z,11.23
2018-03-14T15:37:08.039Z,11.48
2018-03-14T15:39:34.445Z,11.40
2018-03-14T15:42:00.870Z,11.50
2018-03-14T15:44:27.324Z,11.15
2018-03-14T15:46:53.799Z,11.25
2018-03-14T15:49:20.986Z,11.05
2018-03-14T15:51:47.378Z,11.20
2018-03-14T15:54:14.519Z,11.43
2018-03-14T15:56:41.673Z,11.10
2018-03-14T15:59:08.804Z,10.70
2018-03-14T16:01:35.202Z,11.27
2018-03-14T16:04:01.580Z,10.85
2018-03-14T16:06:28.758Z,11.63
2018-03-14T16:08:55.883Z,11.40
2018-03-14T16:11:22.282Z,11.00
2018-03-14T16:13:48.684Z,10.90
2018-03-14T16:16:15.090Z,10.88
2018-03-14T16:18:41.466Z,11.02
2018-03-14T16:21:07.866Z,10.43
2018-03-14T16:23:34.980Z,10.77
2018-03-14T16:26:01.386Z,11.20
2018-03-14T16:28:27.798Z,10.75
2018-03-14T16:30:54.920Z,10.90
2018-03-14T16:33:21.321Z,11.60
2018-03-14T16:35:47.710Z,11.70
2018-03-14T16:38:14.879Z,11.27
2018-03-14T16:40:41.261Z,11.32
2018-03-14T16:43:07.666Z,10.88
2018-03-14T16:45:34.162Z,12.00
2018-03-14T16:48:01.351Z,11.65
2018-03-14T16:50:27.754Z,11.20
2018-03-14T16:52:54.889Z,10.98
2018-03-14T16:55:22.070Z,12.23
2018-03-14T16:57:48.462Z,12.10
2018-03-14T17:00:14.930Z,11.95
2018-03-14T17:02:42.090Z,11.80
2018-03-14T17:05:08.498Z,11.40
2018-03-14T17:07:35.644Z,12.98
2018-03-14T17:10:02.081Z,13.03
2018-03-14T17:12:29.234Z,12.63
2018-03-14T18:16:07.972Z,13.82
2018-03-14T18:18:34.463Z,14.82
2018-03-14T18:21:00.859Z,13.57
2018-03-14T18:23:29.183Z,14.02
2018-03-14T18:25:57.701Z,15.35
2018-03-14T18:28:26.048Z,15.00
2018-03-14T18:30:54.516Z,14.52
2018-03-14T18:33:21.804Z,14.23
2018-03-14T18:35:48.226Z,14.77
2018-03-14T18:38:14.692Z,15.25
2018-03-14T18:40:41.094Z,15.18
2018-03-14T18:43:08.327Z,14.73
2018-03-14T18:45:35.560Z,15.50
2018-03-14T18:48:02.037Z,15.50
2018-03-14T18:50:29.316Z,15.05
2018-03-14T18:52:57.484Z,15.25
2018-03-14T18:55:24.766Z,15.02
2018-03-14T18:57:51.188Z,15.77
2018-03-14T19:00:17.637Z,15.10
2018-03-14T19:02:44.094Z,14.90
2018-03-14T19:05:11.243Z,15.05
2018-03-14T19:07:38.395Z,15.88
2018-03-14T19:10:05.554Z,15.53
2018-03-14T19:12:32.720Z,14.50
2018-03-14T19:14:59.103Z,16.45
2018-03-14T19:17:25.542Z,16.90
2018-03-14T19:19:51.964Z,17.62
2018-03-14T19:22:20.705Z,17.00
2018-03-14T19:24:48.833Z,14.87
2018-03-14T19:27:15.296Z,15.98
2018-03-14T19:29:41.704Z,14.20
2018-03-14T19:32:08.159Z,15.38
2018-03-14T19:34:34.610Z,16.05
2018-03-14T19:37:01.796Z,16.17
2018-03-14T19:39:28.248Z,15.88
2018-03-14T19:41:54.656Z,17.58
2018-03-14T19:44:21.136Z,18.73
2018-03-14T19:46:47.559Z,17.55
2018-03-14T19:49:14.017Z,18.15
2018-03-14T19:51:40.428Z,18.60
2018-03-14T19:54:06.849Z,17.52
2018-03-14T19:56:33.263Z,19.05
2018-03-14T19:58:59.721Z,18.20
2018-03-14T20:01:26.174Z,19.23
2018-03-14T20:03:52.589Z,19.20
2018-03-14T20:06:19.008Z,20.37
2018-03-14T20:08:45.529Z,21.70
2018-03-14T20:11:11.951Z,21.00
2018-03-14T20:13:39.133Z,20.15
2018-03-14T20:16:05.530Z,20.70
2018-03-14T20:18:32.724Z,20.48
2018-03-14T20:20:59.140Z,22.70
2018-03-14T20:23:25.566Z,23.77
2018-03-14T20:25:52.714Z,23.55
2018-03-14T20:28:19.880Z,23.48
2018-03-14T20:30:46.303Z,21.62
2018-03-14T20:33:13.470Z,20.48
2018-03-14T20:35:39.887Z,20.33
2018-03-14T20:38:07.030Z,20.75
2018-03-14T20:40:34.141Z,19.95
2018-03-14T20:43:00.522Z,25.30
2018-03-14T20:45:27.663Z,25.05
2018-03-14T20:47:54.830Z,23.48
2018-03-14T20:50:22.050Z,21.90
2018-03-14T20:52:48.459Z,22.58
2018-03-14T20:55:14.888Z,22.48
2018-03-14T20:57:41.262Z,22.50
2018-03-14T21:00:07.675Z,21.70
2018-03-14T21:02:34.143Z,23.27
2018-03-14T21:05:00.559Z,23.08
2018-03-14T21:07:26.946Z,22.85
2018-03-14T21:09:53.328Z,23.60
2018-03-14T21:12:19.728Z,24.67
2018-03-14T21:14:46.125Z,23.02
2018-03-14T21:17:13.291Z,24.10
2018-03-14T21:19:39.717Z,24.23
2018-03-14T21:22:06.140Z,23.65
2018-03-14T21:24:33.250Z,22.87
2018-03-14T21:26:59.649Z,24.12
2018-03-14T21:29:26.025Z,23.83
2018-03-14T21:31:52.431Z,25.60
2018-03-14T21:34:18.821Z,26.60
2018-03-14T21:36:45.967Z,25.90
2018-03-14T21:39:13.132Z,25.85
2018-03-14T21:41:40.243Z,25.75
2018-03-14T21:44:06.681Z,26.93
2018-03-14T21:46:33.082Z,27.45
2018-03-14T21:48:59.508Z,25.90
2018-03-14T21:51:25.895Z,27.58
2018-03-14T21:53:52.329Z,26.35
2018-03-14T21:56:18.744Z,27.13
2018-03-14T21:58:45.187Z,26.00
2018-03-14T22:01:11.557Z,26.37
2018-03-14T22:03:37.943Z,26.20
2018-03-14T22:06:04.362Z,28.17
2018-03-14T22:08:30.763Z,28.50
2018-03-14T22:10:57.172Z,28.17
2018-03-14T22:13:23.542Z,29.15
2018-03-14T22:15:49.947Z,28.70
2018-03-14T22:18:17.154Z,28.92
2018-03-14T22:20:43.522Z,28.08
2018-03-14T22:23:09.934Z,28.00
2018-03-14T22:25:36.323Z,30.13
2018-03-14T22:28:02.734Z,29.55
2018-03-14T22:30:29.857Z,31.75
2018-03-14T22:32:56.258Z,31.65
2018-03-14T22:35:22.635Z,31.12
2018-03-14T22:37:49.032Z,31.40
2018-03-14T22:40:15.425Z,31.52
2018-03-14T22:42:42.539Z,33.05
2018-03-14T22:45:08.976Z,30.55
2018-03-14T22:47:35.374Z,31.52
2018-03-14T22:50:01.745Z,31.33
2018-03-14T22:52:28.182Z,30.27
2018-03-14T22:54:54.579Z,31.98
2018-03-14T22:57:20.973Z,31.12
2018-03-14T22:59:48.121Z,31.50
2018-03-14T23:02:15.248Z,31.17
2018-03-14T23:04:41.647Z,31.17
2018-03-14T23:07:08.014Z,32.65
2018-03-14T23:09:34.430Z,33.10
2018-03-14T23:12:00.814Z,31.58
2018-03-14T23:14:27.958Z,33.72
2018-03-14T23:16:54.363Z,32.60
2018-03-14T23:19:20.749Z,35.35
2018-03-14T23:21:47.182Z,33.92
2018-03-14T23:24:14.290Z,33.53
2018-03-14T23:26:40.698Z,35.35
2018-03-14T23:29:07.097Z,34.97
2018-03-14T23:31:34.231Z,36.05
2018-03-14T23:34:00.641Z,35.93
2018-03-14T23:36:27.086Z,34.90
2018-03-14T23:38:53.477Z,35.70
2018-03-14T23:41:19.868Z,35.95
2018-03-14T23:43:47.005Z,38.17
2018-03-14T23:46:13.370Z,37.15
2018-03-14T23:48:40.513Z,38.10
2018-03-14T23:51:07.688Z,37.28
2018-03-14T23:53:34.102Z,37.88
2018-03-14T23:56:01.266Z,37.72
2018-03-14T23:58:27.654Z,39.10
